Charleston, Missouri
Current Conditions -  °F | °C
As of 5:35 PM on Saturday 22 Nov 2014 (Local Time) from KCIR Reporting Station
Overcast Overcast  
Wind Chill: 61°   Ceiling: 6000
Heat Index: 61°   Visibility: 10mi
Dew Point: 40°   Wind: 5mph
Humidity: 46%   Direction: 160°SSE
Pressure: 30.03"   Gusts: NA
Location:  36.92°N, 89.35°W
Report Text: KCIR 222335Z AUTO 16004KT 10SM BKN060 OVC110 16/05 A3003 RMK AO2 T01630046
Loading
Personal Weather Stations






























Interactive Weather Map New forecast layout! Learn more

10-Day Weather Forecast

Advertisements
Track Severe Weather on mobile